Time;durP1;ratioP1;P1;durP2;ratioP2;P2;SDS_P1;SDS_P2;PMS_P1;PMS_P2;Temp;Humidity;BMP_temperature;BMP_pressure;BME280_temperature;BME280_humidity;BME280_pressure;Samples;Min_cycle;Max_cycle;Signal;HPM_P1;HPM_P2
2023/06/23 00:00:19;;;;;;;1.83;1.40;;;15.60;99.90;;;;;;2078090;28;20989;-66
2023/06/23 00:01:20;;;;;;;1.67;1.50;;;15.60;99.90;;;;;;2081222;28;20489;-64
2023/06/23 00:02:21;;;;;;;1.50;1.40;;;15.60;99.90;;;;;;2078719;28;20477;-65
2023/06/23 00:03:22;;;;;;;1.40;1.30;;;15.50;99.90;;;;;;2087305;28;20224;-65
2023/06/23 00:04:23;;;;;;;1.87;1.10;;;15.60;99.90;;;;;;2103079;28;20243;-65
2023/06/23 00:05:25;;;;;;;1.40;1.30;;;15.60;99.90;;;;;;2083753;28;20484;-65
2023/06/23 00:06:26;;;;;;;2.17;1.97;;;15.70;99.90;;;;;;2087344;28;20224;-65
2023/06/23 00:07:26;;;;;;;1.90;1.80;;;15.70;99.90;;;;;;2070468;28;20475;-65
2023/06/23 00:08:27;;;;;;;2.13;1.70;;;15.70;99.90;;;;;;2070513;28;20313;-65
2023/06/23 00:09:28;;;;;;;2.07;1.83;;;15.70;99.90;;;;;;2087269;28;20262;-64
2023/06/23 00:10:29;;;;;;;2.00;1.80;;;15.70;99.90;;;;;;2086946;28;20294;-65
2023/06/23 00:11:29;;;;;;;2.10;1.90;;;15.70;99.90;;;;;;2084016;28;20317;-66
2023/06/23 00:12:30;;;;;;;1.70;1.60;;;15.70;99.90;;;;;;2083915;28;20225;-65
2023/06/23 00:13:34;;;;;;;2.00;1.70;;;15.70;99.90;;;;;;2084069;28;20615;-66
2023/06/23 00:14:35;;;;;;;1.63;1.53;;;15.70;99.90;;;;;;2087088;28;20256;-65
2023/06/23 00:15:36;;;;;;;1.70;1.60;;;15.80;99.90;;;;;;2087090;28;20574;-65
2023/06/23 00:16:36;;;;;;;1.60;1.50;;;15.80;99.90;;;;;;2086810;28;20269;-65
2023/06/23 00:17:40;;;;;;;1.40;1.30;;;15.80;99.90;;;;;;2086854;28;20216;-66
2023/06/23 00:18:41;;;;;;;2.33;1.73;;;15.90;99.90;;;;;;2075549;28;20228;-65
2023/06/23 00:19:42;;;;;;;1.60;1.50;;;15.90;99.90;;;;;;2077426;28;20493;-66
2023/06/23 00:20:43;;;;;;;1.53;1.43;;;15.90;99.90;;;;;;2079988;28;21333;-65
2023/06/23 00:21:44;;;;;;;2.60;1.80;;;16.00;99.90;;;;;;2096178;28;20502;-66
2023/06/23 00:22:45;;;;;;;1.80;1.60;;;16.00;99.90;;;;;;2095068;28;20271;-66
2023/06/23 00:23:46;;;;;;;1.73;1.63;;;16.10;99.90;;;;;;2082898;28;20474;-66
2023/06/23 00:24:47;;;;;;;2.00;1.43;;;16.10;99.90;;;;;;2083365;28;20261;-66
2023/06/23 00:25:48;;;;;;;2.23;1.40;;;16.10;99.90;;;;;;2087174;28;21078;-66
2023/06/23 00:26:51;;;;;;;1.33;1.23;;;16.00;99.90;;;;;;2084554;28;20981;-66
2023/06/23 00:27:52;;;;;;;1.43;1.33;;;15.90;99.90;;;;;;2075126;28;20770;-65
2023/06/23 00:28:52;;;;;;;1.47;1.37;;;16.00;99.90;;;;;;2078341;28;20466;-66
2023/06/23 00:29:54;;;;;;;1.67;1.57;;;16.10;99.90;;;;;;2086805;28;20722;-66
2023/06/23 00:30:55;;;;;;;1.33;1.23;;;16.10;99.90;;;;;;2086617;28;20220;-65
2023/06/23 00:31:55;;;;;;;1.40;1.30;;;16.20;99.90;;;;;;2090568;28;21016;-69
2023/06/23 00:32:56;;;;;;;1.27;1.17;;;16.20;99.90;;;;;;2102227;28;20476;-66
2023/06/23 00:33:57;;;;;;;1.20;1.03;;;16.30;99.90;;;;;;2103256;28;20262;-66
2023/06/23 00:34:58;;;;;;;1.73;1.30;;;16.20;99.90;;;;;;2089432;28;20269;-66
2023/06/23 00:35:59;;;;;;;1.30;1.20;;;16.20;99.90;;;;;;2081020;28;20617;-65
2023/06/23 00:36:59;;;;;;;0.90;0.90;;;16.20;99.90;;;;;;2094299;28;20678;-66
2023/06/23 00:38:00;;;;;;;1.10;1.00;;;16.20;99.90;;;;;;2098108;28;20423;-65
2023/06/23 00:39:04;;;;;;;1.30;1.20;;;16.20;99.90;;;;;;2099662;28;20229;-66
2023/06/23 00:40:12;;;;;;;2.07;1.13;;;16.30;99.90;;;;;;2089434;28;20184;-65
2023/06/23 00:41:13;;;;;;;1.03;0.97;;;16.20;99.90;;;;;;2082467;28;20547;-65
2023/06/23 00:42:14;;;;;;;1.10;1.00;;;16.00;99.90;;;;;;2089453;28;20429;-66
2023/06/23 00:43:16;;;;;;;0.80;0.80;;;16.00;99.90;;;;;;2083662;28;20211;-66
2023/06/23 00:44:18;;;;;;;0.90;0.90;;;16.10;99.90;;;;;;2085676;28;20227;-65
2023/06/23 00:45:20;;;;;;;2.20;0.80;;;15.90;99.90;;;;;;2101919;28;20980;-65
2023/06/23 00:46:24;;;;;;;0.60;0.60;;;15.80;99.90;;;;;;2097408;28;20906;-65
2023/06/23 00:47:24;;;;;;;0.83;0.60;;;15.70;99.90;;;;;;2089618;28;20548;-66
2023/06/23 00:48:25;;;;;;;1.17;0.70;;;15.70;99.90;;;;;;2089650;28;20479;-66
2023/06/23 00:49:26;;;;;;;0.77;0.77;;;15.70;99.90;;;;;;2089687;28;20234;-66
2023/06/23 00:50:27;;;;;;;2.40;0.93;;;15.60;99.90;;;;;;2088608;28;20331;-66
2023/06/23 00:51:28;;;;;;;0.80;0.80;;;15.50;99.90;;;;;;2088950;28;20990;-66
2023/06/23 00:52:28;;;;;;;1.07;0.90;;;15.40;99.90;;;;;;2089235;28;20251;-66
2023/06/23 00:53:29;;;;;;;1.50;1.20;;;15.30;99.90;;;;;;2093901;28;20230;-66
2023/06/23 00:54:34;;;;;;;1.43;1.20;;;15.30;99.90;;;;;;2089339;28;20326;-66
2023/06/23 00:55:37;;;;;;;1.60;1.50;;;15.20;99.90;;;;;;2091243;28;20836;-66
2023/06/23 00:56:39;;;;;;;2.00;1.60;;;15.10;99.90;;;;;;2089657;28;21408;-65
2023/06/23 00:57:39;;;;;;;3.30;1.70;;;15.00;99.90;;;;;;2089585;28;20535;-66
2023/06/23 00:58:42;;;;;;;1.93;1.70;;;14.90;99.90;;;;;;2097527;28;21007;-66
2023/06/23 00:59:42;;;;;;;2.20;1.80;;;14.90;99.90;;;;;;2092505;28;20297;-66
2023/06/23 01:00:43;;;;;;;3.40;2.20;;;14.80;99.90;;;;;;2092497;28;20525;-66
2023/06/23 01:01:44;;;;;;;2.47;2.23;;;14.80;99.90;;;;;;2097473;28;20230;-66
2023/06/23 01:03:02;;;;;;;3.60;3.10;;;14.70;99.90;;;;;;2097677;28;20219;-66
2023/06/23 01:04:03;;;;;;;5.00;3.13;;;14.60;99.90;;;;;;2096167;28;20240;-65
2023/06/23 01:05:04;;;;;;;4.03;2.90;;;14.50;99.90;;;;;;2092127;28;20420;-66
2023/06/23 01:06:26;;;;;;;4.57;3.17;;;14.50;99.90;;;;;;2095158;28;20438;-67
2023/06/23 01:07:41;;;;;;;4.10;3.10;;;14.50;99.90;;;;;;2094587;28;20468;-65
2023/06/23 01:09:12;;;;;;;4.20;3.30;;;14.40;99.90;;;;;;2097798;28;20468;-66
2023/06/23 01:10:21;;;;;;;5.13;4.20;;;14.40;99.90;;;;;;2092328;28;20455;-66
2023/06/23 01:11:32;;;;;;;6.00;3.90;;;14.30;99.90;;;;;;2095533;28;20475;-65
2023/06/23 01:12:43;;;;;;;7.20;4.43;;;14.20;99.90;;;;;;2090605;28;20496;-66
2023/06/23 01:13:50;;;;;;;6.10;4.40;;;14.20;99.90;;;;;;2096226;28;20219;-66
2023/06/23 01:15:07;;;;;;;5.47;4.32;;;14.20;99.90;;;;;;2089732;28;20561;-66
2023/06/23 01:16:18;;;;;;;6.82;4.78;;;14.20;99.90;;;;;;2096579;28;20222;-67
2023/06/23 01:17:31;;;;;;;7.05;5.18;;;14.20;99.90;;;;;;2092577;28;20224;-65
2023/06/23 01:19:15;;;;;;;6.53;5.13;;;14.20;99.90;;;;;;2087365;28;20319;-66
2023/06/23 01:20:24;;;;;;;6.72;5.13;;;14.20;99.90;;;;;;2088961;28;20733;-66
2023/06/23 01:21:39;;;;;;;6.17;4.60;;;14.20;99.90;;;;;;2097660;28;20238;-66
2023/06/23 01:23:07;;;;;;;10.05;4.20;;;14.20;99.90;;;;;;2080824;28;20465;-66
2023/06/23 01:24:39;;;;;;;5.32;4.05;;;14.20;99.90;;;;;;2080372;28;20223;-66
2023/06/23 01:25:55;;;;;;;5.45;4.00;;;14.10;99.90;;;;;;2078103;28;20766;-67
2023/06/23 01:27:39;;;;;;;5.85;4.05;;;14.10;99.90;;;;;;2095924;28;21008;-67
2023/06/23 01:29:24;;;;;;;6.22;4.20;;;14.20;99.90;;;;;;2087912;28;20231;-66
2023/06/23 01:30:29;;;;;;;10.20;5.22;;;14.10;99.90;;;;;;2082672;28;20227;-66
2023/06/23 01:32:02;;;;;;;5.25;4.00;;;14.20;99.90;;;;;;2081574;28;20228;-66
2023/06/23 01:33:18;;;;;;;5.55;4.43;;;14.20;99.90;;;;;;2084192;28;20211;-65
2023/06/23 01:34:25;;;;;;;6.97;4.82;;;14.20;99.90;;;;;;2080987;28;20229;-66
2023/06/23 01:35:33;;;;;;;7.63;5.38;;;14.10;99.90;;;;;;2097808;28;20251;-66
2023/06/23 01:36:43;;;;;;;7.53;5.65;;;14.00;99.90;;;;;;2093647;28;20634;-66
2023/06/23 01:37:47;;;;;;;10.32;6.13;;;14.00;99.90;;;;;;2089007;28;20223;-65
2023/06/23 01:38:52;;;;;;;8.45;6.00;;;14.00;99.90;;;;;;2085439;28;20219;-66
2023/06/23 01:40:09;;;;;;;7.88;6.47;;;14.00;99.90;;;;;;2078565;28;20865;-66
2023/06/23 01:41:18;;;;;;;10.35;6.25;;;14.00;99.90;;;;;;2095016;28;20713;-66
2023/06/23 01:42:23;;;;;;;8.97;6.40;;;14.10;99.90;;;;;;2094599;28;20235;-65
2023/06/23 01:43:31;;;;;;;9.60;6.63;;;14.10;99.90;;;;;;2087358;28;20469;-65
2023/06/23 01:44:33;;;;;;;9.50;6.75;;;14.10;99.90;;;;;;2089301;28;20523;-65
2023/06/23 01:45:39;;;;;;;9.02;6.70;;;14.10;99.90;;;;;;2080418;28;20727;-66
2023/06/23 01:46:44;;;;;;;8.82;6.55;;;14.10;99.90;;;;;;2094598;28;20243;-65
2023/06/23 01:47:49;;;;;;;8.60;6.38;;;14.10;99.90;;;;;;2093854;28;20215;-66
2023/06/23 01:48:54;;;;;;;10.25;7.03;;;14.20;99.90;;;;;;2096713;28;20215;-66
2023/06/23 01:49:58;;;;;;;9.82;6.82;;;14.20;99.90;;;;;;2092146;28;20227;-66
2023/06/23 01:51:02;;;;;;;10.50;6.73;;;14.20;99.90;;;;;;2094911;28;20243;-65
2023/06/23 01:52:06;;;;;;;9.65;7.05;;;14.10;99.90;;;;;;2095762;28;20464;-66
2023/06/23 01:53:09;;;;;;;8.85;6.95;;;14.10;99.90;;;;;;2081749;28;20291;-66
2023/06/23 01:54:12;;;;;;;9.95;7.10;;;14.10;99.90;;;;;;2087886;28;20603;-66
2023/06/23 01:55:16;;;;;;;10.23;7.00;;;14.10;99.90;;;;;;2104473;28;20179;-66
2023/06/23 01:56:18;;;;;;;11.20;7.67;;;14.10;99.90;;;;;;2092905;28;20476;-65
2023/06/23 01:57:21;;;;;;;10.60;7.20;;;14.10;99.90;;;;;;2079892;28;20608;-66
2023/06/23 01:58:24;;;;;;;11.05;6.85;;;14.10;99.90;;;;;;2079743;28;20236;-65
2023/06/23 01:59:25;;;;;;;8.45;6.65;;;14.10;99.90;;;;;;2075996;28;20620;-66
2023/06/23 02:00:27;;;;;;;8.93;6.97;;;14.10;99.90;;;;;;2079714;28;20307;-65
2023/06/23 02:01:31;;;;;;;11.55;8.75;;;14.10;99.90;;;;;;2084086;28;20349;-65
2023/06/23 02:02:32;;;;;;;11.10;8.25;;;14.10;99.90;;;;;;2088275;28;20691;-66
2023/06/23 02:03:34;;;;;;;11.00;8.18;;;14.20;99.90;;;;;;2079806;28;21264;-66
2023/06/23 02:04:36;;;;;;;11.43;8.75;;;14.10;99.90;;;;;;2087626;28;20219;-66
2023/06/23 02:05:38;;;;;;;10.98;8.63;;;14.10;99.90;;;;;;2084720;28;20224;-66
2023/06/23 02:06:41;;;;;;;11.20;8.10;;;14.10;99.90;;;;;;2085212;28;20260;-66
2023/06/23 02:07:46;;;;;;;10.80;8.38;;;14.10;99.90;;;;;;2083721;28;20589;-65
2023/06/23 02:08:48;;;;;;;10.80;8.07;;;14.10;99.90;;;;;;2089006;28;20216;-66
2023/06/23 02:09:51;;;;;;;10.23;7.47;;;14.10;99.90;;;;;;2074771;28;20213;-66
2023/06/23 02:10:55;;;;;;;11.85;7.20;;;14.10;99.90;;;;;;2072649;28;20950;-65
2023/06/23 02:11:57;;;;;;;9.30;7.30;;;14.10;99.90;;;;;;2095886;28;20230;-69
2023/06/23 02:12:58;;;;;;;10.02;7.03;;;14.10;99.90;;;;;;2095561;28;20668;-66
2023/06/23 02:14:00;;;;;;;9.38;6.55;;;14.10;99.90;;;;;;2079420;28;20575;-66
2023/06/23 02:15:03;;;;;;;7.85;5.85;;;14.00;99.90;;;;;;2079551;28;20188;-66
2023/06/23 02:16:06;;;;;;;8.65;6.30;;;14.00;99.90;;;;;;2077425;28;20184;-64
2023/06/23 02:17:09;;;;;;;8.20;6.55;;;13.90;99.90;;;;;;2085740;28;20180;-64
2023/06/23 02:18:11;;;;;;;9.45;5.97;;;13.90;99.90;;;;;;2080686;28;20197;-63
2023/06/23 02:19:13;;;;;;;7.30;5.65;;;13.90;99.90;;;;;;2089568;28;20208;-64
2023/06/23 02:20:16;;;;;;;8.63;5.90;;;13.90;99.90;;;;;;2088370;28;20184;-64
2023/06/23 02:21:17;;;;;;;7.47;5.85;;;13.90;99.90;;;;;;2084016;28;20235;-64
2023/06/23 02:22:22;;;;;;;9.47;6.17;;;13.90;99.90;;;;;;2095348;28;20230;-64
2023/06/23 02:23:24;;;;;;;9.55;6.97;;;13.90;99.90;;;;;;2100536;28;20727;-64
2023/06/23 02:24:26;;;;;;;10.50;6.93;;;13.80;99.90;;;;;;2084776;28;20228;-64
2023/06/23 02:25:28;;;;;;;11.20;8.48;;;13.80;99.90;;;;;;2087473;28;20616;-65
2023/06/23 02:26:29;;;;;;;10.45;7.30;;;13.90;99.90;;;;;;2096254;28;20804;-65
2023/06/23 02:27:30;;;;;;;11.33;7.20;;;13.90;99.90;;;;;;2087625;28;20372;-64
2023/06/23 02:28:31;;;;;;;11.87;8.73;;;13.90;99.90;;;;;;2087492;28;20581;-64
2023/06/23 02:29:36;;;;;;;12.77;9.67;;;13.90;99.90;;;;;;2092586;28;20227;-64
2023/06/23 02:30:38;;;;;;;14.20;10.10;;;13.90;99.90;;;;;;2076396;28;20255;-66
2023/06/23 02:31:39;;;;;;;10.57;8.25;;;13.90;99.90;;;;;;2072942;28;20224;-66
2023/06/23 02:32:40;;;;;;;11.43;8.60;;;13.90;99.90;;;;;;2082745;28;20293;-65
2023/06/23 02:33:41;;;;;;;14.47;9.77;;;13.90;99.90;;;;;;2078375;28;20209;-66
2023/06/23 02:34:41;;;;;;;15.73;10.00;;;13.90;99.90;;;;;;2082104;28;20223;-66
2023/06/23 02:35:42;;;;;;;16.07;10.23;;;13.90;99.90;;;;;;2089828;28;20219;-66
2023/06/23 02:36:50;;;;;;;16.57;10.70;;;13.90;99.90;;;;;;2086339;28;20589;-65
2023/06/23 02:37:56;;;;;;;15.23;11.05;;;13.90;99.90;;;;;;2085192;28;20215;-65
2023/06/23 02:38:58;;;;;;;14.32;10.70;;;13.90;99.90;;;;;;2083331;28;20282;-65
2023/06/23 02:40:09;;;;;;;17.02;11.95;;;13.90;99.90;;;;;;2088942;28;20265;-66
2023/06/23 02:41:12;;;;;;;19.20;11.85;;;13.90;99.90;;;;;;2085056;28;20582;-66
2023/06/23 02:42:16;;;;;;;17.33;12.13;;;13.90;99.90;;;;;;2087939;28;20587;-65
2023/06/23 02:43:30;;;;;;;18.45;12.57;;;14.00;99.90;;;;;;2087642;28;20230;-65
2023/06/23 02:44:37;;;;;;;16.73;12.73;;;14.00;99.90;;;;;;2086634;28;20255;-65
2023/06/23 02:45:42;;;;;;;17.55;12.32;;;13.90;99.90;;;;;;2088282;28;20258;-66
2023/06/23 02:46:49;;;;;;;16.73;11.55;;;13.90;99.90;;;;;;2094318;28;20298;-65
2023/06/23 02:47:55;;;;;;;18.77;13.02;;;13.90;99.90;;;;;;2093894;28;20228;-65
2023/06/23 02:49:05;;;;;;;20.63;13.32;;;13.90;99.90;;;;;;2087477;28;20666;-67
2023/06/23 02:50:11;;;;;;;20.52;13.77;;;13.90;99.90;;;;;;2094843;28;20222;-65
2023/06/23 02:51:17;;;;;;;20.63;14.43;;;13.90;99.90;;;;;;2085281;28;20176;-65
2023/06/23 02:52:19;;;;;;;18.65;13.52;;;13.90;99.90;;;;;;2075822;28;20237;-66
2023/06/23 02:53:29;;;;;;;25.00;16.35;;;13.90;99.90;;;;;;2083726;28;20781;-66
2023/06/23 02:54:37;;;;;;;23.13;15.98;;;13.90;99.90;;;;;;2075900;28;20232;-65
2023/06/23 02:55:45;;;;;;;21.58;14.80;;;13.90;99.90;;;;;;2079260;28;20227;-66
2023/06/23 02:56:48;;;;;;;22.35;15.23;;;13.90;99.90;;;;;;2075330;28;20224;-65
2023/06/23 02:57:52;;;;;;;24.25;16.05;;;13.90;99.90;;;;;;2073812;28;20811;-66
2023/06/23 02:59:05;;;;;;;23.10;15.30;;;13.90;99.90;;;;;;2099608;28;20223;-66
2023/06/23 03:00:13;;;;;;;25.15;16.35;;;13.90;99.90;;;;;;2091131;28;20218;-65
2023/06/23 03:01:16;;;;;;;24.23;15.90;;;13.90;99.90;;;;;;2089142;28;20557;-65
2023/06/23 03:02:18;;;;;;;24.85;14.50;;;13.90;99.90;;;;;;2086724;28;20236;-66
2023/06/23 03:03:19;;;;;;;23.58;15.18;;;13.90;99.90;;;;;;2095760;28;20231;-66
2023/06/23 03:04:21;;;;;;;22.87;16.53;;;13.90;99.90;;;;;;2082917;28;20739;-65
2023/06/23 03:05:22;;;;;;;23.20;16.27;;;13.90;99.90;;;;;;2071378;28;20245;-65
2023/06/23 03:06:23;;;;;;;25.10;17.30;;;13.90;99.90;;;;;;2087333;28;20239;-65
2023/06/23 03:07:24;;;;;;;23.88;15.85;;;13.90;99.90;;;;;;2079157;28;20232;-65
2023/06/23 03:08:25;;;;;;;24.83;16.35;;;13.90;99.90;;;;;;2087072;28;20259;-65
2023/06/23 03:09:26;;;;;;;25.25;16.98;;;14.00;99.90;;;;;;2087390;28;20228;-66
2023/06/23 03:10:28;;;;;;;25.07;15.63;;;14.00;99.90;;;;;;2079081;28;20231;-65
2023/06/23 03:11:31;;;;;;;27.02;17.00;;;14.00;99.90;;;;;;2087325;28;20464;-66
2023/06/23 03:12:33;;;;;;;26.65;16.80;;;14.00;99.90;;;;;;2086798;28;20376;-66
2023/06/23 03:13:33;;;;;;;26.05;16.17;;;14.00;99.90;;;;;;2087057;28;20258;-65
2023/06/23 03:14:36;;;;;;;27.77;17.80;;;14.10;99.90;;;;;;2083244;28;20591;-66
2023/06/23 03:15:36;;;;;;;27.17;17.63;;;14.10;99.90;;;;;;2083422;28;20248;-65
2023/06/23 03:16:49;;;;;;;28.73;17.93;;;14.10;99.90;;;;;;2077921;28;20237;-65
2023/06/23 03:17:56;;;;;;;28.73;17.25;;;14.10;99.90;;;;;;2071542;28;20227;-65
2023/06/23 03:19:22;;;;;;;29.92;18.13;;;14.20;99.90;;;;;;2091726;28;20219;-67
2023/06/23 03:20:50;;;;;;;26.88;17.30;;;14.10;99.90;;;;;;2083811;28;20315;-66
2023/06/23 03:22:01;;;;;;;30.23;17.60;;;14.10;99.90;;;;;;2083935;28;20862;-66
2023/06/23 03:23:13;;;;;;;29.15;18.45;;;14.00;99.90;;;;;;2085111;28;20219;-65
2023/06/23 03:24:15;;;;;;;29.17;17.47;;;14.00;99.90;;;;;;2085952;28;20184;-66
2023/06/23 03:25:25;;;;;;;26.52;17.85;;;14.00;99.90;;;;;;2090669;28;20548;-65
2023/06/23 03:26:28;;;;;;;30.13;18.67;;;14.10;99.90;;;;;;2084835;28;20235;-66
2023/06/23 03:27:31;;;;;;;30.03;19.63;;;14.00;99.90;;;;;;2079380;28;20235;-66
2023/06/23 03:28:34;;;;;;;29.52;18.58;;;14.00;99.90;;;;;;2079260;28;20486;-65
2023/06/23 03:30:02;;;;;;;26.92;17.85;;;14.00;99.90;;;;;;2086327;28;20220;-66
2023/06/23 03:31:08;;;;;;;27.67;18.45;;;14.00;99.90;;;;;;2079921;28;20260;-66
2023/06/23 03:32:14;;;;;;;27.85;18.08;;;14.00;99.90;;;;;;2073667;28;20209;-66
2023/06/23 03:33:24;;;;;;;28.55;19.65;;;14.00;99.90;;;;;;2082067;28;20172;-66
2023/06/23 03:34:39;;;;;;;30.90;19.05;;;14.00;99.90;;;;;;2091778;28;20226;-65
2023/06/23 03:35:44;;;;;;;29.92;19.10;;;14.10;99.90;;;;;;2086783;28;20313;-65
2023/06/23 03:36:47;;;;;;;29.07;18.17;;;14.00;99.90;;;;;;2081098;28;20379;-65
2023/06/23 03:37:59;;;;;;;28.50;18.40;;;14.10;99.90;;;;;;2085530;28;20573;-66
2023/06/23 03:39:15;;;;;;;27.58;18.60;;;14.10;99.90;;;;;;2094404;28;20226;-65
2023/06/23 03:40:20;;;;;;;25.98;17.77;;;14.20;99.90;;;;;;2094711;28;20253;-65
2023/06/23 03:41:21;;;;;;;28.15;18.77;;;14.10;99.90;;;;;;2085133;28;20310;-65
2023/06/23 03:42:23;;;;;;;27.60;18.50;;;14.20;99.90;;;;;;2085728;28;20224;-66
2023/06/23 03:43:41;;;;;;;25.25;16.77;;;14.10;99.90;;;;;;2091326;28;20220;-65
2023/06/23 03:44:47;;;;;;;29.73;18.13;;;14.20;99.90;;;;;;2079829;28;20574;-66
2023/06/23 03:45:54;;;;;;;23.77;16.23;;;14.20;99.90;;;;;;2098678;28;20226;-66
2023/06/23 03:47:04;;;;;;;26.63;16.98;;;14.10;99.90;;;;;;2093911;28;20226;-69
2023/06/23 03:48:12;;;;;;;25.42;17.63;;;14.20;99.90;;;;;;2079586;28;20205;-66
2023/06/23 03:49:15;;;;;;;27.20;18.23;;;14.10;99.90;;;;;;2080508;28;20669;-65
2023/06/23 03:50:23;;;;;;;30.80;17.63;;;14.20;99.90;;;;;;2084036;28;20237;-65
2023/06/23 03:51:28;;;;;;;27.10;18.05;;;14.20;99.90;;;;;;2087013;28;20330;-66
2023/06/23 03:52:29;;;;;;;27.85;17.85;;;14.20;99.90;;;;;;2082880;28;20307;-66
2023/06/23 03:53:32;;;;;;;26.67;16.83;;;14.20;99.90;;;;;;2075030;28;20229;-66
2023/06/23 03:54:34;;;;;;;28.50;17.03;;;14.20;99.90;;;;;;2091100;28;20879;-66
2023/06/23 03:55:38;;;;;;;28.40;17.73;;;14.20;99.90;;;;;;2088665;28;21257;-65
2023/06/23 03:56:40;;;;;;;29.97;17.97;;;14.20;99.90;;;;;;2083038;28;20237;-65
2023/06/23 03:57:43;;;;;;;24.80;17.00;;;14.20;99.90;;;;;;2090448;28;20479;-66
2023/06/23 03:58:47;;;;;;;27.98;17.33;;;14.20;99.90;;;;;;2081415;28;20494;-65
2023/06/23 03:59:50;;;;;;;24.97;16.30;;;14.20;99.90;;;;;;2089213;28;20225;-65
2023/06/23 04:00:53;;;;;;;24.05;16.17;;;14.10;99.90;;;;;;2085157;28;20922;-65
2023/06/23 04:01:57;;;;;;;24.40;15.80;;;14.20;99.90;;;;;;2086990;28;20215;-66
2023/06/23 04:02:59;;;;;;;25.43;17.27;;;14.30;99.90;;;;;;2094460;28;20458;-65
2023/06/23 04:04:03;;;;;;;28.83;17.33;;;14.30;99.90;;;;;;2091142;28;20428;-65
2023/06/23 04:05:05;;;;;;;27.98;17.83;;;14.30;99.90;;;;;;2081837;28;20779;-66
2023/06/23 04:06:09;;;;;;;24.63;16.77;;;14.40;99.90;;;;;;2076671;28;20197;-66
2023/06/23 04:07:10;;;;;;;24.77;17.27;;;14.40;99.90;;;;;;2079019;28;20978;-66
2023/06/23 04:08:12;;;;;;;27.40;18.52;;;14.40;99.90;;;;;;2086465;28;20519;-65
2023/06/23 04:09:16;;;;;;;25.63;16.35;;;14.40;99.90;;;;;;2086361;28;20185;-66
2023/06/23 04:10:19;;;;;;;27.77;17.85;;;14.40;99.90;;;;;;2086875;28;20305;-66
2023/06/23 04:11:21;;;;;;;27.23;18.35;;;14.30;99.90;;;;;;2085092;28;20326;-65
2023/06/23 04:12:23;;;;;;;27.50;18.88;;;14.30;99.90;;;;;;2085159;28;20236;-66
2023/06/23 04:13:26;;;;;;;28.53;17.90;;;14.30;99.90;;;;;;2087051;28;20228;-66
2023/06/23 04:14:29;;;;;;;28.75;17.58;;;14.30;99.90;;;;;;2086852;28;20477;-65
2023/06/23 04:15:33;;;;;;;26.95;17.85;;;14.30;99.90;;;;;;2075386;28;20748;-65
2023/06/23 04:16:36;;;;;;;30.83;18.42;;;14.20;99.90;;;;;;2086700;28;20220;-66
2023/06/23 04:17:41;;;;;;;28.95;18.15;;;14.30;99.90;;;;;;2086971;28;20224;-65
2023/06/23 04:18:43;;;;;;;28.58;18.15;;;14.40;99.90;;;;;;2071078;28;20229;-65
2023/06/23 04:19:48;;;;;;;28.85;18.02;;;14.40;99.90;;;;;;2075189;28;20225;-65
2023/06/23 04:20:50;;;;;;;29.15;18.30;;;14.40;99.90;;;;;;2079316;28;20224;-65
2023/06/23 04:21:53;;;;;;;29.13;17.80;;;14.40;99.90;;;;;;2078818;28;20216;-65
2023/06/23 04:22:55;;;;;;;32.60;19.17;;;14.40;99.90;;;;;;2078690;28;21519;-65
2023/06/23 04:23:57;;;;;;;30.98;19.23;;;14.50;99.90;;;;;;2091521;28;20448;-67
2023/06/23 04:25:01;;;;;;;29.00;18.87;;;14.60;99.90;;;;;;2091022;28;20697;-66
2023/06/23 04:26:03;;;;;;;29.67;19.45;;;14.60;99.90;;;;;;2086671;28;20858;-66
2023/06/23 04:27:06;;;;;;;32.13;19.17;;;14.60;99.90;;;;;;2077117;28;20860;-66
2023/06/23 04:28:11;;;;;;;26.73;17.60;;;14.50;99.90;;;;;;2069077;28;20443;-66
2023/06/23 04:29:13;;;;;;;29.50;17.90;;;14.50;99.90;;;;;;2078834;28;20655;-65
2023/06/23 04:30:14;;;;;;;32.17;19.35;;;14.50;99.90;;;;;;2077847;28;20188;-66
2023/06/23 04:31:17;;;;;;;31.25;19.10;;;14.50;99.90;;;;;;2086245;28;20289;-65
2023/06/23 04:32:20;;;;;;;31.48;18.23;;;14.60;99.90;;;;;;2083428;28;20309;-65
2023/06/23 04:33:20;;;;;;;29.63;18.00;;;14.60;99.90;;;;;;2086503;28;20232;-65
2023/06/23 04:34:21;;;;;;;32.93;19.77;;;14.60;99.90;;;;;;2085258;28;20513;-65
2023/06/23 04:35:22;;;;;;;32.17;19.17;;;14.60;99.90;;;;;;2083839;28;20224;-65
2023/06/23 04:36:44;;;;;;;30.90;19.67;;;14.60;99.90;;;;;;2086839;28;20376;-66
2023/06/23 04:38:03;;;;;;;29.85;19.38;;;14.60;99.90;;;;;;2085855;28;20216;-66
2023/06/23 04:39:27;;;;;;;27.15;17.48;;;14.70;99.90;;;;;;2081313;28;20242;-65
2023/06/23 04:40:51;;;;;;;31.88;20.60;;;14.70;99.90;;;;;;2087934;28;20270;-66
2023/06/23 04:41:56;;;;;;;29.13;17.50;;;14.60;99.90;;;;;;2084040;28;20216;-65
2023/06/23 04:43:13;;;;;;;33.17;20.23;;;14.60;99.90;;;;;;2091713;28;21255;-65
2023/06/23 04:44:18;;;;;;;32.03;20.00;;;14.60;99.90;;;;;;2088292;28;20938;-65
2023/06/23 04:45:24;;;;;;;31.43;18.80;;;14.70;99.90;;;;;;2102787;28;20227;-65
2023/06/23 04:46:33;;;;;;;28.30;19.10;;;14.80;99.90;;;;;;2090206;28;20472;-65
2023/06/23 04:47:39;;;;;;;33.60;20.45;;;14.90;99.90;;;;;;2085165;28;20469;-65
2023/06/23 04:48:47;;;;;;;31.95;19.13;;;14.90;99.90;;;;;;2086344;28;20236;-66
2023/06/23 04:49:57;;;;;;;32.40;20.63;;;14.90;99.90;;;;;;2079374;28;20221;-66
2023/06/23 04:50:59;;;;;;;30.80;19.50;;;14.90;99.90;;;;;;2086081;28;20472;-66
2023/06/23 04:52:05;;;;;;;31.97;20.13;;;15.00;99.90;;;;;;2093801;28;20460;-65
2023/06/23 04:53:16;;;;;;;33.17;20.37;;;15.10;99.90;;;;;;2085837;28;20414;-65
2023/06/23 04:54:31;;;;;;;33.30;20.13;;;15.10;99.90;;;;;;2087777;28;20947;-65
2023/06/23 04:55:35;;;;;;;35.17;21.23;;;15.20;99.90;;;;;;2082953;28;20511;-65
2023/06/23 04:56:38;;;;;;;32.47;20.47;;;15.20;99.90;;;;;;2086082;28;20465;-65
2023/06/23 04:57:40;;;;;;;35.73;22.60;;;15.10;99.90;;;;;;2086313;28;20534;-65
2023/06/23 04:58:43;;;;;;;34.33;20.77;;;15.10;99.90;;;;;;2083620;28;20468;-65
2023/06/23 04:59:54;;;;;;;31.10;20.10;;;15.10;99.90;;;;;;2087741;28;20522;-65
2023/06/23 05:00:57;;;;;;;32.17;20.17;;;15.10;99.90;;;;;;2072803;28;20508;-64
2023/06/23 05:02:01;;;;;;;33.57;19.93;;;15.10;99.90;;;;;;2080834;28;20494;-65
2023/06/23 05:03:04;;;;;;;32.43;20.23;;;15.00;99.90;;;;;;2094199;28;21059;-64
2023/06/23 05:04:06;;;;;;;31.57;19.20;;;15.10;99.90;;;;;;2084785;28;20428;-64
2023/06/23 05:05:09;;;;;;;29.93;19.63;;;15.00;99.90;;;;;;2084050;28;20472;-65
2023/06/23 05:06:11;;;;;;;33.20;21.17;;;15.10;99.90;;;;;;2100517;28;20871;-64
2023/06/23 05:07:14;;;;;;;32.17;19.23;;;15.10;99.90;;;;;;2093483;28;20815;-65
2023/06/23 05:08:16;;;;;;;34.23;20.17;;;15.20;99.90;;;;;;2076047;28;20533;-65
2023/06/23 05:09:17;;;;;;;32.33;19.87;;;15.30;99.90;;;;;;2090486;28;20479;-65
2023/06/23 05:10:20;;;;;;;30.20;20.30;;;15.30;99.90;;;;;;2090831;28;20569;-65
2023/06/23 05:11:22;;;;;;;28.23;19.27;;;15.40;99.90;;;;;;2075279;28;20972;-65
2023/06/23 05:12:25;;;;;;;30.03;19.27;;;15.40;99.90;;;;;;2078632;28;20482;-64
2023/06/23 05:13:29;;;;;;;31.23;19.03;;;15.40;99.90;;;;;;2078508;28;20470;-65
2023/06/23 05:14:33;;;;;;;26.13;17.50;;;15.50;99.90;;;;;;2078938;28;20477;-64
2023/06/23 05:15:34;;;;;;;26.90;18.57;;;15.50;99.90;;;;;;2078582;28;20470;-64
2023/06/23 05:16:37;;;;;;;27.80;18.60;;;15.50;99.90;;;;;;2080114;28;20501;-64
2023/06/23 05:17:39;;;;;;;31.17;18.80;;;15.50;99.90;;;;;;2079817;28;20596;-64
2023/06/23 05:18:42;;;;;;;28.60;18.20;;;15.50;99.90;;;;;;2089163;28;20487;-65
2023/06/23 05:19:46;;;;;;;29.67;19.07;;;15.60;99.90;;;;;;2086227;28;20465;-65
2023/06/23 05:20:48;;;;;;;27.97;18.80;;;15.60;99.90;;;;;;2078198;28;20470;-65
2023/06/23 05:21:52;;;;;;;25.97;18.13;;;15.70;99.90;;;;;;2075674;28;20466;-64
2023/06/23 05:22:57;;;;;;;28.57;18.57;;;15.80;99.90;;;;;;2087367;28;20848;-65
2023/06/23 05:23:59;;;;;;;27.90;17.73;;;15.80;99.90;;;;;;2073944;28;20538;-65
2023/06/23 05:25:04;;;;;;;28.30;19.27;;;15.90;99.90;;;;;;2085498;28;20417;-65
2023/06/23 05:26:07;;;;;;;23.73;16.70;;;15.90;99.90;;;;;;2087659;28;20548;-65
2023/06/23 05:27:10;;;;;;;29.93;18.13;;;16.00;99.90;;;;;;2080728;28;20410;-65
2023/06/23 05:28:12;;;;;;;29.10;17.23;;;16.10;99.90;;;;;;2090719;28;20453;-65
2023/06/23 05:29:17;;;;;;;25.43;17.57;;;16.20;99.90;;;;;;2080483;28;20429;-65
2023/06/23 05:30:19;;;;;;;25.57;17.43;;;16.30;99.90;;;;;;2072477;28;20907;-65
2023/06/23 05:31:23;;;;;;;25.50;17.10;;;16.30;99.90;;;;;;2084033;28;20550;-65
2023/06/23 05:32:26;;;;;;;25.83;17.27;;;16.30;99.90;;;;;;2080336;28;20481;-65
2023/06/23 05:33:33;;;;;;;26.37;17.50;;;16.20;99.90;;;;;;2082450;28;20470;-65
2023/06/23 05:34:35;;;;;;;24.17;16.93;;;16.10;99.90;;;;;;2082742;28;20632;-66